Time;durP1;ratioP1;P1;durP2;ratioP2;P2;SDS_P1;SDS_P2;PMS_P1;PMS_P2;Temp;Humidity;BMP_temperature;BMP_pressure;BME280_temperature;BME280_humidity;BME280_pressure;Samples;Min_cycle;Max_cycle;Signal;HPM_P1;HPM_P2
2021/06/25 00:00:49;;;;;;;16.40;14.77;;;19.30;98.50;;;;;;5050569;28;20464;-84
2021/06/25 00:03:16;;;;;;;18.97;15.97;;;19.30;98.90;;;;;;5072278;28;20456;-84
2021/06/25 00:05:45;;;;;;;17.57;15.67;;;19.30;98.60;;;;;;5052282;28;20995;-83
2021/06/25 00:08:20;;;;;;;17.23;14.37;;;19.30;98.60;;;;;;5035340;28;20487;-84
2021/06/25 00:10:50;;;;;;;17.87;15.13;;;19.30;98.60;;;;;;5033063;28;20526;-84
2021/06/25 00:13:19;;;;;;;16.03;14.40;;;19.30;98.50;;;;;;5033186;28;20454;-82
2021/06/25 00:15:54;;;;;;;16.37;14.77;;;19.30;98.50;;;;;;5039634;28;20459;-83
2021/06/25 00:18:38;;;;;;;15.67;14.13;;;19.30;98.40;;;;;;5036362;28;20846;-83
2021/06/25 00:21:10;;;;;;;16.83;14.70;;;19.20;98.50;;;;;;5034582;28;20456;-84
2021/06/25 00:26:57;;;;;;;16.10;14.50;;;19.10;98.50;;;;;;5028647;28;20484;-84
2021/06/25 00:30:32;;;;;;;;;;;;;;;;;;;;;
2021/06/25 00:32:59;;;;;;;15.67;14.03;;;19.10;98.50;;;;;;5065025;28;20951;-83
2021/06/25 00:35:26;;;;;;;16.13;14.60;;;19.20;98.50;;;;;;5064337;28;20487;-82
2021/06/25 00:37:53;;;;;;;16.60;13.20;;;19.10;98.60;;;;;;5066249;28;20495;-84
2021/06/25 00:40:23;;;;;;;18.60;14.00;;;19.10;98.60;;;;;;5065869;28;20467;-83
2021/06/25 00:42:51;;;;;;;18.00;15.63;;;19.10;98.60;;;;;;5063429;28;20554;-83
2021/06/25 00:45:24;;;;;;;20.30;14.80;;;19.10;98.60;;;;;;5067456;28;20455;-83
2021/06/25 00:47:51;;;;;;;16.33;14.63;;;19.10;98.50;;;;;;5069594;28;20546;-83
2021/06/25 00:50:28;;;;;;;15.50;13.90;;;19.10;98.50;;;;;;5085434;28;20512;-83
2021/06/25 00:52:58;;;;;;;19.37;15.63;;;19.10;98.50;;;;;;5088168;28;20442;-84
2021/06/25 00:55:28;;;;;;;17.87;16.07;;;19.10;98.60;;;;;;5085250;28;21826;-84
2021/06/25 00:58:47;;;;;;;18.77;16.50;;;19.10;98.60;;;;;;5081504;28;20451;-85
2021/06/25 01:01:31;;;;;;;16.63;14.97;;;19.10;98.60;;;;;;5067608;28;20443;-83
2021/06/25 01:04:01;;;;;;;18.17;16.37;;;19.00;98.70;;;;;;5063689;28;20459;-83
2021/06/25 01:06:29;;;;;;;19.13;16.07;;;19.00;98.80;;;;;;5060441;28;20581;-83
2021/06/25 01:09:27;;;;;;;19.10;15.93;;;19.00;98.80;;;;;;5061009;28;21271;-81
2021/06/25 01:12:08;;;;;;;18.80;16.10;;;19.00;98.80;;;;;;5060922;28;21036;-83
2021/06/25 01:14:38;;;;;;;17.00;15.23;;;19.00;98.90;;;;;;5058942;28;20515;-83
2021/06/25 01:20:31;;;;;;;20.20;16.63;;;19.00;99.00;;;;;;5063934;28;20454;-82
2021/06/25 01:22:59;;;;;;;18.63;16.80;;;19.00;99.00;;;;;;5068049;28;21188;-83
2021/06/25 01:25:36;;;;;;;20.37;17.87;;;19.00;98.90;;;;;;5080390;28;20471;-83
2021/06/25 01:28:16;;;;;;;18.50;16.70;;;19.00;99.10;;;;;;5078398;28;21043;-81
2021/06/25 01:31:34;;;;;;;19.27;17.27;;;19.00;99.10;;;;;;5053712;28;20489;-82
2021/06/25 01:34:20;;;;;;;18.30;16.47;;;18.90;99.00;;;;;;5068741;28;20546;-83
2021/06/25 01:40:22;;;;;;;18.83;16.90;;;18.80;99.20;;;;;;5068245;28;20532;-84
2021/06/25 01:42:53;;;;;;;19.30;16.63;;;18.80;99.40;;;;;;5069489;28;20455;-81
2021/06/25 01:45:35;;;;;;;18.70;16.63;;;18.80;99.60;;;;;;5061004;28;20450;-82
2021/06/25 01:48:11;;;;;;;18.07;16.03;;;18.80;99.60;;;;;;5074229;28;20510;-81
2021/06/25 01:50:43;;;;;;;19.27;17.00;;;18.80;99.60;;;;;;5065877;28;20537;-80
2021/06/25 01:53:18;;;;;;;18.90;16.90;;;18.80;99.70;;;;;;5063954;28;20893;-81
2021/06/25 01:55:50;;;;;;;20.10;18.10;;;18.70;99.90;;;;;;5060049;28;20508;-84
2021/06/25 01:58:19;;;;;;;18.67;16.70;;;18.70;99.90;;;;;;5065176;28;20477;-83
2021/06/25 02:01:14;;;;;;;18.27;16.37;;;18.70;99.90;;;;;;5062836;28;20452;-83
2021/06/25 02:03:43;;;;;;;19.37;17.37;;;18.70;99.90;;;;;;5056563;28;20975;-83
2021/06/25 02:06:11;;;;;;;20.27;18.27;;;18.70;99.90;;;;;;5064654;28;20446;-83
2021/06/25 02:08:39;;;;;;;19.27;17.37;;;18.60;99.90;;;;;;5071551;28;20482;-84
2021/06/25 02:11:08;;;;;;;19.73;17.67;;;18.70;99.90;;;;;;5065781;28;20481;-84
2021/06/25 02:13:35;;;;;;;20.37;18.13;;;18.60;99.90;;;;;;5066188;28;20731;-83
2021/06/25 02:16:04;;;;;;;21.27;19.23;;;18.50;99.90;;;;;;5066751;28;20484;-83
2021/06/25 02:18:31;;;;;;;18.97;17.17;;;18.40;99.90;;;;;;5070395;28;20546;-82
2021/06/25 02:21:01;;;;;;;20.47;18.23;;;18.40;99.90;;;;;;5083021;28;20442;-82
2021/06/25 02:23:28;;;;;;;21.17;18.90;;;18.40;99.90;;;;;;5085924;28;20454;-83
2021/06/25 02:25:55;;;;;;;26.97;19.43;;;18.40;99.90;;;;;;5083581;28;20440;-84
2021/06/25 02:28:22;;;;;;;21.33;18.77;;;18.30;99.90;;;;;;5083938;28;20478;-84
2021/06/25 02:30:52;;;;;;;20.43;18.37;;;18.30;99.90;;;;;;5084420;28;20485;-84
2021/06/25 02:33:18;;;;;;;23.50;21.07;;;18.30;99.90;;;;;;5085556;28;20964;-85
2021/06/25 02:35:45;;;;;;;21.70;18.70;;;18.20;99.90;;;;;;5083199;28;20451;-82
2021/06/25 02:38:12;;;;;;;22.87;18.40;;;18.20;99.90;;;;;;5087887;28;20470;-84
2021/06/25 02:40:39;;;;;;;22.60;19.57;;;18.10;99.90;;;;;;5068481;28;20499;-84
2021/06/25 02:43:06;;;;;;;20.97;18.77;;;18.10;99.90;;;;;;5089047;28;20450;-83
2021/06/25 02:45:33;;;;;;;22.37;19.97;;;18.20;99.90;;;;;;5089349;28;20493;-83
2021/06/25 02:48:00;;;;;;;21.03;18.97;;;18.20;99.90;;;;;;5091478;28;20490;-82
2021/06/25 02:50:26;;;;;;;21.53;18.97;;;18.20;99.90;;;;;;5091029;28;20474;-82
2021/06/25 02:52:54;;;;;;;21.40;19.20;;;18.20;99.90;;;;;;5087956;28;21000;-84
2021/06/25 02:55:20;;;;;;;20.63;18.43;;;18.20;99.90;;;;;;5090691;28;20458;-81
2021/06/25 02:57:47;;;;;;;20.30;18.20;;;18.20;99.90;;;;;;5109483;28;20443;-83
2021/06/25 03:00:16;;;;;;;23.60;19.90;;;18.10;99.90;;;;;;5102580;28;20471;-84
2021/06/25 03:02:44;;;;;;;21.23;19.03;;;18.10;99.90;;;;;;5104273;28;20458;-84
2021/06/25 03:05:13;;;;;;;21.80;19.70;;;18.10;99.90;;;;;;5114889;28;20509;-85
2021/06/25 03:07:40;;;;;;;20.90;18.90;;;18.10;99.90;;;;;;5104176;28;20450;-84
2021/06/25 03:10:08;;;;;;;23.60;19.07;;;18.10;99.90;;;;;;5105842;28;20487;-83
2021/06/25 03:12:35;;;;;;;25.63;20.13;;;18.10;99.90;;;;;;5099203;28;20458;-84
2021/06/25 03:15:05;;;;;;;22.67;19.27;;;18.10;99.90;;;;;;5091863;28;21112;-82
2021/06/25 03:17:32;;;;;;;23.17;20.03;;;18.10;99.90;;;;;;5073101;28;20463;-83
2021/06/25 03:19:59;;;;;;;20.77;18.63;;;18.00;99.90;;;;;;5075148;28;20471;-83
2021/06/25 03:22:25;;;;;;;22.40;20.00;;;17.90;99.90;;;;;;5076525;28;20455;-84
2021/06/25 03:24:52;;;;;;;24.57;19.67;;;17.90;99.90;;;;;;5067011;28;20454;-83
2021/06/25 03:27:19;;;;;;;22.30;19.63;;;17.90;99.90;;;;;;5088646;28;20518;-82
2021/06/25 03:29:46;;;;;;;22.67;19.20;;;17.80;99.90;;;;;;5097026;28;20482;-84
2021/06/25 03:32:13;;;;;;;26.27;20.03;;;17.80;99.90;;;;;;5096745;28;20443;-84
2021/06/25 03:34:50;;;;;;;25.00;20.53;;;17.80;99.90;;;;;;5078676;28;20537;-82
2021/06/25 03:37:21;;;;;;;22.03;18.70;;;17.70;99.90;;;;;;5096188;28;20447;-84
2021/06/25 03:39:51;;;;;;;22.97;20.67;;;17.80;99.90;;;;;;5068657;28;20515;-82
2021/06/25 03:42:24;;;;;;;25.23;20.60;;;17.80;99.90;;;;;;5068709;28;20499;-84
2021/06/25 03:44:53;;;;;;;21.53;19.20;;;17.80;99.90;;;;;;5086915;28;20503;-83
2021/06/25 03:47:20;;;;;;;20.60;18.50;;;17.90;99.90;;;;;;5073977;28;20470;-83
2021/06/25 03:49:47;;;;;;;22.77;20.23;;;17.90;99.90;;;;;;5088804;28;20549;-84
2021/06/25 03:52:14;;;;;;;22.57;19.60;;;17.90;99.90;;;;;;5070447;28;20466;-82
2021/06/25 03:54:43;;;;;;;25.27;19.33;;;17.90;99.90;;;;;;5084481;28;21182;-82
2021/06/25 03:57:09;;;;;;;21.30;19.00;;;17.90;99.90;;;;;;5087152;28;20446;-83
2021/06/25 03:59:37;;;;;;;23.87;20.13;;;17.80;99.90;;;;;;5071091;28;20474;-83
2021/06/25 04:02:09;;;;;;;25.23;21.07;;;17.80;99.90;;;;;;5083740;28;20453;-84
2021/06/25 04:04:39;;;;;;;20.73;18.60;;;17.80;99.90;;;;;;5084740;28;20542;-83
2021/06/25 04:07:09;;;;;;;20.77;18.63;;;17.90;99.90;;;;;;5088777;28;20443;-82
2021/06/25 04:09:36;;;;;;;22.33;20.13;;;17.80;99.90;;;;;;5080438;28;20454;-82
2021/06/25 04:12:04;;;;;;;22.50;20.10;;;17.80;99.90;;;;;;5088020;28;20459;-85
2021/06/25 04:14:30;;;;;;;22.40;20.03;;;17.70;99.90;;;;;;5090101;28;20460;-84
2021/06/25 04:16:57;;;;;;;21.80;19.17;;;17.70;99.90;;;;;;5072077;28;20454;-85
2021/06/25 04:19:24;;;;;;;24.90;20.10;;;17.80;99.90;;;;;;5084828;28;20494;-83
2021/06/25 04:21:51;;;;;;;22.70;18.50;;;17.70;99.90;;;;;;5083432;28;20461;-82
2021/06/25 04:24:18;;;;;;;24.40;20.83;;;17.80;99.90;;;;;;5070044;28;20652;-81
2021/06/25 04:26:45;;;;;;;23.33;19.97;;;17.90;99.90;;;;;;5069783;28;20488;-82
2021/06/25 04:29:20;;;;;;;26.27;20.80;;;17.90;99.90;;;;;;5088886;28;20459;-79
2021/06/25 04:31:52;;;;;;;25.50;19.83;;;17.90;99.90;;;;;;5075946;28;20836;-84
2021/06/25 04:34:19;;;;;;;23.57;20.80;;;17.90;99.90;;;;;;5095915;28;20516;-84
2021/06/25 04:36:47;;;;;;;23.27;20.77;;;18.00;99.90;;;;;;5092175;28;20569;-83
2021/06/25 04:39:14;;;;;;;26.30;20.73;;;17.90;99.90;;;;;;5089515;28;20461;-84
2021/06/25 04:41:41;;;;;;;22.67;20.27;;;17.90;99.90;;;;;;5070504;28;21164;-82
2021/06/25 04:44:08;;;;;;;21.63;19.50;;;17.90;99.90;;;;;;5089096;28;20473;-82
2021/06/25 04:46:39;;;;;;;22.67;19.77;;;17.90;99.90;;;;;;5080722;28;21017;-83
2021/06/25 04:49:06;;;;;;;27.40;21.27;;;17.90;99.90;;;;;;5079982;28;20466;-82
2021/06/25 04:51:33;;;;;;;26.87;20.70;;;18.00;99.90;;;;;;5059561;28;20462;-83
2021/06/25 04:54:00;;;;;;;23.33;20.87;;;18.00;99.90;;;;;;5084577;28;20426;-84
2021/06/25 04:56:27;;;;;;;27.03;23.30;;;18.00;99.90;;;;;;5114526;28;20457;-82
2021/06/25 04:58:53;;;;;;;28.43;24.07;;;18.00;99.90;;;;;;5076321;28;20505;-83
2021/06/25 05:01:25;;;;;;;27.37;24.27;;;18.00;99.90;;;;;;5088393;28;20469;-82
2021/06/25 05:03:51;;;;;;;27.10;23.20;;;18.00;99.90;;;;;;5086705;28;20454;-84
2021/06/25 05:06:18;;;;;;;26.63;23.80;;;18.00;99.90;;;;;;5070620;28;20449;-84
2021/06/25 05:08:45;;;;;;;28.00;23.10;;;18.10;99.90;;;;;;5071115;28;20605;-84
2021/06/25 05:11:12;;;;;;;25.37;22.10;;;18.10;99.90;;;;;;5088401;28;21254;-83
2021/06/25 05:13:38;;;;;;;25.60;22.57;;;18.10;99.90;;;;;;5089887;28;20457;-84
2021/06/25 05:16:05;;;;;;;26.60;23.80;;;18.40;99.90;;;;;;5072764;28;20953;-83
2021/06/25 05:18:34;;;;;;;27.10;24.20;;;18.50;99.90;;;;;;5087749;28;20478;-83
2021/06/25 05:21:17;;;;;;;26.53;23.30;;;18.50;99.90;;;;;;5089291;28;20458;-84
2021/06/25 05:23:44;;;;;;;29.80;24.73;;;18.90;99.70;;;;;;5088916;28;20458;-84
2021/06/25 05:26:11;;;;;;;30.63;24.90;;;19.10;99.00;;;;;;5090082;28;20450;-83
2021/06/25 05:28:38;;;;;;;29.77;24.93;;;19.10;98.80;;;;;;5074511;28;20470;-84
2021/06/25 05:31:05;;;;;;;37.47;25.60;;;19.10;99.00;;;;;;5074310;28;20853;-83
2021/06/25 05:33:32;;;;;;;33.27;26.50;;;18.90;99.00;;;;;;5073570;28;21310;-84
2021/06/25 05:35:59;;;;;;;28.30;24.60;;;18.90;99.30;;;;;;5073569;28;20457;-84
2021/06/25 05:38:26;;;;;;;28.97;25.43;;;18.80;99.40;;;;;;5094613;28;20458;-83
2021/06/25 05:40:53;;;;;;;29.67;24.30;;;18.90;99.60;;;;;;5100442;28;20454;-83
2021/06/25 05:43:20;;;;;;;29.47;25.60;;;18.80;99.50;;;;;;5081779;28;20609;-82
2021/06/25 05:45:47;;;;;;;29.00;24.77;;;18.80;99.60;;;;;;5100591;28;20462;-81
2021/06/25 05:48:15;;;;;;;30.27;26.20;;;18.80;99.70;;;;;;5092978;28;20495;-85
2021/06/25 05:50:42;;;;;;;29.67;24.30;;;18.90;99.70;;;;;;5109524;28;20486;-84
2021/06/25 05:53:15;;;;;;;36.30;26.00;;;18.90;99.70;;;;;;5096498;28;20438;-85
2021/06/25 05:55:54;;;;;;;37.63;27.10;;;19.20;99.30;;;;;;5099637;28;20569;-83
2021/06/25 05:58:33;;;;;;;30.17;26.87;;;19.20;99.20;;;;;;5099012;28;20611;-85
2021/06/25 06:01:13;;;;;;;28.83;25.07;;;19.40;98.80;;;;;;5099992;28;20458;-84
2021/06/25 06:03:40;;;;;;;29.10;25.97;;;19.30;98.70;;;;;;5110628;28;20490;-84
2021/06/25 06:06:10;;;;;;;35.73;26.97;;;19.20;98.80;;;;;;5088922;28;20450;-85
2021/06/25 06:08:38;;;;;;;29.93;25.60;;;19.40;98.90;;;;;;5086785;28;20465;-82
2021/06/25 06:11:10;;;;;;;32.40;24.90;;;19.30;98.40;;;;;;5089827;28;20466;-83
2021/06/25 06:13:37;;;;;;;29.30;24.63;;;19.30;98.20;;;;;;5110627;28;20568;-81
2021/06/25 06:16:05;;;;;;;26.30;23.50;;;19.30;98.20;;;;;;5086377;28;20446;-81
2021/06/25 06:18:43;;;;;;;26.90;24.00;;;19.30;98.00;;;;;;5083940;28;20474;-83
2021/06/25 06:21:16;;;;;;;24.90;21.67;;;19.30;97.90;;;;;;5089301;28;20456;-82
2021/06/25 06:32:29;;;;;;;19.03;16.67;;;19.30;95.10;;;;;;5100265;28;20473;-84
2021/06/25 06:34:51;;;;;;;20.50;17.33;;;19.30;95.00;;;;;;5099113;28;20470;-83
2021/06/25 06:37:20;;;;;;;19.07;17.03;;;19.40;94.70;;;;;;5097156;28;20460;-83
2021/06/25 06:39:48;;;;;;;20.23;18.13;;;19.50;94.50;;;;;;5097754;28;20481;-83
2021/06/25 06:42:15;;;;;;;18.90;16.90;;;19.50;93.40;;;;;;5094566;28;20457;-83
2021/06/25 06:44:41;;;;;;;19.83;17.73;;;19.50;93.00;;;;;;5079660;28;21089;-83
2021/06/25 06:47:08;;;;;;;20.37;18.07;;;19.50;92.70;;;;;;5082030;28;20550;-82
2021/06/25 06:49:35;;;;;;;18.40;16.27;;;19.50;92.00;;;;;;5091608;28;20477;-84
2021/06/25 06:52:05;;;;;;;17.33;15.43;;;19.50;92.10;;;;;;5115982;28;20470;-84
2021/06/25 06:54:32;;;;;;;18.17;16.27;;;19.50;92.00;;;;;;5101506;28;20580;-80
2021/06/25 06:56:59;;;;;;;17.50;15.67;;;19.70;92.30;;;;;;5106329;28;20510;-85
2021/06/25 06:59:26;;;;;;;18.60;16.73;;;19.80;92.20;;;;;;5102835;28;20469;-82
2021/06/25 07:01:54;;;;;;;18.30;16.10;;;19.80;91.20;;;;;;5106956;28;20449;-83
2021/06/25 07:04:37;;;;;;;17.20;15.63;;;20.30;90.80;;;;;;5111102;28;20547;-85
2021/06/25 07:07:04;;;;;;;15.40;13.87;;;20.20;90.20;;;;;;5075944;28;20568;-83
2021/06/25 07:09:31;;;;;;;13.93;12.30;;;20.10;90.40;;;;;;5076120;28;20492;-83
2021/06/25 07:11:58;;;;;;;15.80;14.13;;;20.30;90.10;;;;;;5091963;28;20482;-81
2021/06/25 07:14:25;;;;;;;16.70;13.80;;;20.30;89.80;;;;;;5094400;28;20447;-84
2021/06/25 07:16:53;;;;;;;14.67;13.17;;;20.30;89.40;;;;;;5075767;28;20461;-83
2021/06/25 07:19:20;;;;;;;14.77;13.17;;;20.30;89.50;;;;;;5073542;28;20478;-82
2021/06/25 07:21:47;;;;;;;18.80;13.70;;;20.30;89.70;;;;;;5076891;28;20458;-83
2021/06/25 07:24:13;;;;;;;14.00;12.63;;;20.30;90.20;;;;;;5090837;28;20461;-84
2021/06/25 07:26:40;;;;;;;15.57;14.13;;;20.40;89.70;;;;;;5090156;28;20622;-85
2021/06/25 07:29:09;;;;;;;14.77;13.27;;;20.50;89.20;;;;;;5095320;28;20473;-83
2021/06/25 07:31:36;;;;;;;14.57;13.13;;;20.50;88.70;;;;;;5077826;28;20469;-82
2021/06/25 07:34:03;;;;;;;14.50;12.93;;;20.70;88.90;;;;;;5091003;28;21021;-82
2021/06/25 07:36:42;;;;;;;14.17;12.87;;;21.00;87.90;;;;;;5092521;28;20442;-82
2021/06/25 07:39:18;;;;;;;14.60;13.10;;;21.20;86.60;;;;;;5073879;28;20970;-83
2021/06/25 07:41:45;;;;;;;15.03;13.53;;;21.60;85.30;;;;;;5074251;28;20463;-83
2021/06/25 07:44:14;;;;;;;14.60;12.87;;;21.50;84.20;;;;;;5097265;28;20962;-83
2021/06/25 07:46:42;;;;;;;14.60;11.80;;;21.10;84.70;;;;;;5087500;28;20482;-81
2021/06/25 07:49:09;;;;;;;12.73;11.17;;;20.90;85.80;;;;;;5086283;28;20508;-84
2021/06/25 07:51:37;;;;;;;12.60;11.30;;;21.10;85.60;;;;;;5105692;28;20492;-84
2021/06/25 07:54:04;;;;;;;11.60;10.40;;;21.50;82.40;;;;;;5100826;28;20455;-83
2021/06/25 07:56:32;;;;;;;12.90;11.33;;;21.80;81.40;;;;;;5074032;28;20442;-83
2021/06/25 07:58:59;;;;;;;14.27;11.87;;;21.50;82.50;;;;;;5100249;28;20475;-84
2021/06/25 08:01:26;;;;;;;12.43;11.13;;;21.40;83.40;;;;;;5081842;28;20476;-81
2021/06/25 08:03:53;;;;;;;13.20;11.80;;;21.80;81.40;;;;;;5093410;28;20442;-82
2021/06/25 08:06:20;;;;;;;15.07;13.67;;;21.70;81.70;;;;;;5094538;28;20454;-82
2021/06/25 08:08:47;;;;;;;12.60;11.40;;;22.30;80.90;;;;;;5072101;28;20486;-83
2021/06/25 08:11:14;;;;;;;15.43;11.50;;;22.20;81.40;;;;;;5088153;28;20517;-82
2021/06/25 08:13:41;;;;;;;14.13;12.63;;;22.40;81.00;;;;;;5076812;28;20455;-82
2021/06/25 08:16:14;;;;;;;13.10;11.70;;;22.40;80.00;;;;;;5070533;28;20447;-83
2021/06/25 08:18:44;;;;;;;12.97;11.67;;;22.50;79.50;;;;;;5069925;28;20461;-82
2021/06/25 08:21:13;;;;;;;12.40;11.17;;;22.80;79.10;;;;;;5073176;28;20982;-83
2021/06/25 08:23:39;;;;;;;11.73;10.53;;;22.80;77.80;;;;;;5088717;28;20467;-82
2021/06/25 08:26:06;;;;;;;13.03;11.60;;;22.60;78.40;;;;;;5089593;28;20540;-82
2021/06/25 08:28:33;;;;;;;14.13;12.83;;;22.80;77.90;;;;;;5080584;28;20475;-83
2021/06/25 08:30:59;;;;;;;12.37;10.93;;;22.80;77.80;;;;;;5077217;28;20504;-82
2021/06/25 08:33:26;;;;;;;11.83;10.53;;;22.50;78.00;;;;;;5096775;28;20471;-84
2021/06/25 08:35:56;;;;;;;12.97;11.70;;;22.90;76.30;;;;;;5077166;28;20467;-83
2021/06/25 08:38:25;;;;;;;11.27;10.03;;;22.60;76.40;;;;;;5070779;28;20923;-84
2021/06/25 08:40:55;;;;;;;11.27;10.23;;;22.40;77.50;;;;;;5087026;28;20490;-81
2021/06/25 08:43:25;;;;;;;11.67;10.30;;;22.50;78.50;;;;;;5070295;28;21059;-81
2021/06/25 08:45:53;;;;;;;11.97;10.67;;;22.60;77.60;;;;;;5068449;28;20482;-83
2021/06/25 08:48:25;;;;;;;10.43;9.43;;;23.20;75.80;;;;;;5068895;28;20563;-83
2021/06/25 08:50:59;;;;;;;9.80;8.90;;;23.00;74.80;;;;;;5075345;28;20442;-83
2021/06/25 08:53:27;;;;;;;14.20;9.20;;;22.80;73.10;;;;;;5070037;28;20450;-83
2021/06/25 08:55:54;;;;;;;12.13;8.30;;;22.60;74.00;;;;;;5071752;28;20499;-83
2021/06/25 08:58:22;;;;;;;8.87;8.03;;;22.70;73.70;;;;;;5087590;28;20485;-84
2021/06/25 09:00:50;;;;;;;8.90;8.10;;;22.80;72.40;;;;;;5088562;28;20449;-83
2021/06/25 09:03:30;;;;;;;9.00;8.27;;;22.90;70.80;;;;;;5070382;28;20461;-82
2021/06/25 09:06:18;;;;;;;8.10;7.50;;;23.20;69.90;;;;;;5085928;28;20501;-82
2021/06/25 09:13:01;;;;;;;8.83;7.90;;;24.20;66.20;;;;;;5011869;28;20556;-82
2021/06/25 09:15:31;;;;;;;9.90;8.97;;;25.30;61.50;;;;;;4997508;28;20466;-82
2021/06/25 09:18:09;;;;;;;9.40;8.60;;;24.20;63.10;;;;;;5049640;28;21010;-82
2021/06/25 09:20:45;;;;;;;8.63;7.40;;;23.80;60.30;;;;;;5086874;28;20442;-83
2021/06/25 09:23:39;;;;;;;8.40;7.70;;;23.70;61.10;;;;;;5069698;28;20474;-83
2021/06/25 09:26:31;;;;;;;7.93;7.13;;;23.80;61.10;;;;;;5087177;28;20462;-84
2021/06/25 09:29:15;;;;;;;7.67;6.93;;;25.40;57.30;;;;;;5090328;28;20486;-80
2021/06/25 09:31:42;;;;;;;8.23;7.40;;;25.20;57.00;;;;;;5075245;28;20593;-83
2021/06/25 09:34:53;;;;;;;9.10;7.10;;;24.80;57.50;;;;;;5092440;28;20462;-85
2021/06/25 09:37:53;;;;;;;8.37;7.57;;;24.70;57.50;;;;;;5078143;28;20479;-86
2021/06/25 09:40:54;;;;;;;8.57;7.77;;;24.90;57.10;;;;;;5078815;28;20453;-84
2021/06/25 09:43:36;;;;;;;7.50;6.57;;;24.80;57.90;;;;;;5096940;28;20475;-85
2021/06/25 09:46:34;;;;;;;8.00;7.20;;;24.90;57.80;;;;;;5084515;28;20561;-85
2021/06/25 09:49:38;;;;;;;8.83;7.77;;;25.70;57.10;;;;;;5074579;28;21058;-85
2021/06/25 09:52:22;;;;;;;8.17;7.37;;;27.10;54.00;;;;;;5067308;28;20478;-82
2021/06/25 09:55:48;;;;;;;8.43;6.80;;;27.00;52.70;;;;;;5075409;28;20449;-82
2021/06/25 10:04:07;;;;;;;9.07;7.50;;;26.50;52.00;;;;;;5095763;28;20442;-84
2021/06/25 10:06:34;;;;;;;7.67;6.97;;;26.40;52.30;;;;;;5092101;28;21068;-83
2021/06/25 10:12:57;;;;;;;6.60;6.10;;;28.20;48.10;;;;;;5108404;28;20478;-84
2021/06/25 10:15:43;;;;;;;8.73;7.97;;;27.30;49.20;;;;;;5088372;28;20458;-85
2021/06/25 10:18:25;;;;;;;9.13;8.23;;;26.50;50.60;;;;;;5100236;28;21045;-84
2021/06/25 10:21:28;;;;;;;8.50;7.90;;;26.20;51.80;;;;;;4732936;28;10000043;-83
2021/06/25 10:24:02;;;;;;;8.80;8.00;;;26.80;51.50;;;;;;5073701;28;20204;-82
2021/06/25 10:26:38;;;;;;;9.87;9.07;;;27.00;51.10;;;;;;5077144;28;20450;-86
2021/06/25 10:32:26;;;;;;;10.10;9.13;;;26.60;51.50;;;;;;3228488;26;20479;-83
2021/06/25 10:35:13;;;;;;;10.20;9.20;;;26.40;52.20;;;;;;5036484;28;20455;-84
2021/06/25 10:37:58;;;;;;;10.50;9.57;;;25.80;52.20;;;;;;5047160;28;20594;-84
2021/06/25 10:40:35;;;;;;;9.67;8.83;;;25.20;54.00;;;;;;5053236;28;20454;-84
2021/06/25 10:43:50;;;;;;;;;;;;;;;;;;;;;
2021/06/25 10:50:08;;;;;;;9.00;8.17;;;26.40;54.20;;;;;;5079347;28;20459;-85
2021/06/25 10:53:04;;;;;;;11.63;10.43;;;26.70;52.00;;;;;;5029559;28;20506;-84
2021/06/25 10:56:07;;;;;;;9.83;8.57;;;26.70;51.90;;;;;;5077502;28;20506;-84
2021/06/25 10:58:37;;;;;;;10.00;9.20;;;26.90;51.90;;;;;;5047639;28;20456;-84
2021/06/25 11:01:08;;;;;;;9.00;8.30;;;27.10;51.00;;;;;;5063267;28;20454;-84
2021/06/25 11:03:54;;;;;;;9.60;8.70;;;27.40;50.10;;;;;;5062567;28;20451;-84
2021/06/25 11:06:33;;;;;;;9.77;8.97;;;27.30;49.20;;;;;;5063877;28;20455;-81
2021/06/25 11:09:06;;;;;;;8.43;7.60;;;27.20;49.10;;;;;;5062940;28;20475;-82
2021/06/25 11:11:33;;;;;;;9.13;8.10;;;27.10;49.10;;;;;;5043844;28;20622;-83
2021/06/25 11:14:01;;;;;;;8.13;7.53;;;27.50;48.60;;;;;;5046125;28;20458;-83
2021/06/25 11:16:28;;;;;;;8.90;8.00;;;27.70;47.90;;;;;;5062232;28;20436;-83
2021/06/25 11:18:58;;;;;;;8.20;7.60;;;27.60;46.80;;;;;;5061836;28;20479;-82
2021/06/25 11:21:42;;;;;;;8.80;7.70;;;27.40;46.10;;;;;;5060424;28;20452;-85
2021/06/25 11:24:09;;;;;;;8.53;7.83;;;28.10;45.90;;;;;;5044829;28;20462;-85
2021/06/25 11:26:54;;;;;;;8.60;7.90;;;28.10;45.50;;;;;;5055200;28;20455;-82
2021/06/25 11:29:46;;;;;;;11.30;10.23;;;27.90;45.90;;;;;;5072540;28;20509;-85
2021/06/25 11:32:27;;;;;;;9.17;8.27;;;29.00;44.40;;;;;;5054109;28;20480;-80
2021/06/25 11:34:56;;;;;;;9.40;8.60;;;28.30;45.50;;;;;;5053787;28;20504;-83
2021/06/25 11:38:01;;;;;;;11.50;9.30;;;27.50;47.20;;;;;;5068528;28;20456;-83
2021/06/25 11:40:46;;;;;;;10.53;9.63;;;26.60;48.60;;;;;;5050296;28;20464;-84
2021/06/25 11:43:19;;;;;;;10.83;9.73;;;26.10;49.90;;;;;;5048017;28;20463;-81
2021/06/25 11:45:50;;;;;;;10.43;9.37;;;25.90;50.40;;;;;;5053600;28;20455;-82
2021/06/25 11:48:19;;;;;;;10.17;9.30;;;25.80;50.80;;;;;;5051305;28;21172;-82
2021/06/25 11:50:52;;;;;;;8.80;8.00;;;26.20;50.30;;;;;;5050337;28;20814;-82
2021/06/25 11:53:19;;;;;;;9.00;8.23;;;26.60;49.60;;;;;;5069828;28;20487;-81
2021/06/25 11:55:54;;;;;;;8.43;7.73;;;27.10;48.60;;;;;;5072968;28;20925;-83
2021/06/25 11:58:21;;;;;;;8.20;7.40;;;27.10;46.90;;;;;;5068771;28;20474;-83
2021/06/25 12:01:03;;;;;;;10.50;8.97;;;27.10;47.30;;;;;;5067249;28;20562;-84
2021/06/25 12:03:44;;;;;;;10.97;9.83;;;26.90;48.50;;;;;;5058363;28;20495;-82
2021/06/25 12:06:11;;;;;;;10.67;8.97;;;26.60;49.50;;;;;;5055051;28;20450;-87
2021/06/25 12:09:00;;;;;;;9.80;8.90;;;26.80;47.60;;;;;;5057098;28;20467;-84
2021/06/25 12:11:30;;;;;;;9.70;8.90;;;27.30;47.90;;;;;;5052815;28;20455;-84
2021/06/25 12:14:03;;;;;;;10.50;9.50;;;27.40;47.90;;;;;;5068417;28;20459;-82
2021/06/25 12:16:32;;;;;;;9.20;8.40;;;27.40;46.60;;;;;;5067028;28;20459;-81
2021/06/25 12:19:01;;;;;;;11.40;10.30;;;28.50;45.40;;;;;;5058414;28;20467;-83
2021/06/25 12:21:28;;;;;;;9.87;9.17;;;29.00;43.80;;;;;;5053853;28;20759;-84
2021/06/25 12:23:57;;;;;;;11.40;10.43;;;28.30;44.00;;;;;;5074063;28;21175;-83
2021/06/25 12:26:26;;;;;;;9.60;8.90;;;28.00;44.50;;;;;;5060068;28;20456;-84
2021/06/25 12:29:03;;;;;;;11.33;10.23;;;27.90;45.90;;;;;;5054767;28;20616;-84
2021/06/25 12:31:34;;;;;;;8.53;7.83;;;27.50;45.80;;;;;;5067048;28;20886;-84
2021/06/25 12:34:04;;;;;;;10.90;9.90;;;27.30;46.30;;;;;;5053116;28;20444;-83
2021/06/25 12:36:31;;;;;;;9.63;8.87;;;27.20;46.10;;;;;;5048125;28;20455;-82
2021/06/25 12:39:09;;;;;;;12.43;11.03;;;27.20;46.00;;;;;;5049884;28;20491;-85
2021/06/25 12:45:53;;;;;;;11.27;10.27;;;27.10;46.90;;;;;;5068074;28;20430;-82
2021/06/25 12:48:27;;;;;;;10.77;9.77;;;27.70;45.90;;;;;;5053490;28;20483;-83
2021/06/25 12:51:19;;;;;;;10.27;9.47;;;27.70;45.50;;;;;;5074415;28;20550;-82
2021/06/25 12:53:58;;;;;;;11.20;10.20;;;27.40;46.50;;;;;;5074340;28;20486;-81
2021/06/25 12:56:56;;;;;;;12.20;10.80;;;27.00;47.00;;;;;;5071798;28;20478;-84
2021/06/25 13:00:15;;;;;;;12.13;11.03;;;26.50;47.80;;;;;;5050102;28;20467;-85
2021/06/25 13:03:46;;;;;;;;;;;;;;;;;;;;;
2021/06/25 13:06:35;;;;;;;11.87;10.77;;;26.80;48.40;;;;;;5078926;28;20456;-88
2021/06/25 13:09:38;;;;;;;11.90;10.77;;;26.80;48.20;;;;;;5051660;28;20483;-87
2021/06/25 13:13:02;;;;;;;12.00;10.53;;;27.00;47.50;;;;;;5047590;28;21007;-88
2021/06/25 13:15:29;;;;;;;11.80;10.80;;;27.10;48.00;;;;;;5068042;28;20471;-88
2021/06/25 13:18:37;;;;;;;10.67;9.13;;;27.00;47.40;;;;;;5050621;28;20458;-87
2021/06/25 13:21:53;;;;;;;10.20;9.33;;;26.90;47.40;;;;;;5021939;28;20446;-87
2021/06/25 13:25:28;;;;;;;10.03;9.13;;;27.00;46.40;;;;;;5056084;28;20423;-88
2021/06/25 13:28:26;;;;;;;10.30;9.33;;;27.30;45.30;;;;;;5039789;28;20800;-87
2021/06/25 13:31:07;;;;;;;10.00;9.13;;;26.90;46.10;;;;;;5048289;28;20458;-88
2021/06/25 13:38:55;;;;;;;9.03;8.33;;;27.40;45.10;;;;;;5028078;28;20424;-86
2021/06/25 13:41:48;;;;;;;9.77;8.83;;;27.30;44.20;;;;;;5044144;28;20469;-87
2021/06/25 13:44:38;;;;;;;9.33;8.53;;;27.30;44.60;;;;;;5061226;28;20428;-87
2021/06/25 13:51:00;;;;;;;9.17;8.37;;;26.80;46.40;;;;;;4985599;28;20453;-86
2021/06/25 13:54:35;;;;;;;7.80;7.20;;;27.20;45.40;;;;;;5047689;28;20487;-87
2021/06/25 13:58:33;;;;;;;10.13;8.17;;;27.50;43.70;;;;;;5045109;28;20588;-85
2021/06/25 14:01:40;;;;;;;8.53;7.70;;;26.90;44.80;;;;;;4967999;28;20536;-86
2021/06/25 14:04:41;;;;;;;8.33;7.73;;;26.80;45.50;;;;;;5006163;28;21040;-85
2021/06/25 14:07:16;;;;;;;7.50;6.73;;;26.90;45.40;;;;;;4985528;28;20447;-82